sensor_id;sensor_type;location;lat;lon;timestamp;P1;durP1;ratioP1;P2;durP2;ratioP2
70981;SDS011;58640;51.320;9.456;2023-07-02T00:02:24;3.78;;;3.13;;
70981;SDS011;58640;51.320;9.456;2023-07-02T00:05:11;5.82;;;4.00;;
70981;SDS011;58640;51.320;9.456;2023-07-02T00:07:52;4.80;;;4.10;;
70981;SDS011;58640;51.320;9.456;2023-07-02T00:11:00;4.30;;;3.60;;
70981;SDS011;58640;51.320;9.456;2023-07-02T00:19:50;6.38;;;3.55;;
70981;SDS011;58640;51.320;9.456;2023-07-02T00:22:38;3.88;;;3.38;;
70981;SDS011;58640;51.320;9.456;2023-07-02T00:32:08;4.03;;;3.72;;
70981;SDS011;58640;51.320;9.456;2023-07-02T00:42:20;4.93;;;4.53;;
70981;SDS011;58640;51.320;9.456;2023-07-02T00:47:41;7.60;;;4.90;;
70981;SDS011;58640;51.320;9.456;2023-07-02T00:54:34;4.30;;;4.00;;
70981;SDS011;58640;51.320;9.456;2023-07-02T01:06:41;4.95;;;4.55;;
70981;SDS011;58640;51.320;9.456;2023-07-02T01:49:33;3.10;;;2.90;;
70981;SDS011;58640;51.320;9.456;2023-07-02T01:51:58;4.03;;;2.92;;
70981;SDS011;58640;51.320;9.456;2023-07-02T01:54:24;4.68;;;3.00;;
70981;SDS011;58640;51.320;9.456;2023-07-02T01:56:57;3.33;;;3.03;;
70981;SDS011;58640;51.320;9.456;2023-07-02T01:59:22;6.40;;;3.53;;
70981;SDS011;58640;51.320;9.456;2023-07-02T02:01:48;4.82;;;3.03;;
70981;SDS011;58640;51.320;9.456;2023-07-02T02:04:13;3.03;;;2.78;;
70981;SDS011;58640;51.320;9.456;2023-07-02T02:06:39;3.00;;;2.80;;
70981;SDS011;58640;51.320;9.456;2023-07-02T02:09:05;3.28;;;3.00;;
70981;SDS011;58640;51.320;9.456;2023-07-02T02:11:31;3.25;;;2.90;;
70981;SDS011;58640;51.320;9.456;2023-07-02T02:13:58;3.00;;;2.78;;
70981;SDS011;58640;51.320;9.456;2023-07-02T02:16:26;3.28;;;3.00;;
70981;SDS011;58640;51.320;9.456;2023-07-02T02:18:52;5.75;;;3.30;;
70981;SDS011;58640;51.320;9.456;2023-07-02T02:21:18;6.07;;;3.33;;
70981;SDS011;58640;51.320;9.456;2023-07-02T02:23:43;6.20;;;3.15;;
70981;SDS011;58640;51.320;9.456;2023-07-02T02:26:09;5.47;;;3.30;;
70981;SDS011;58640;51.320;9.456;2023-07-02T02:28:34;6.40;;;3.50;;
70981;SDS011;58640;51.320;9.456;2023-07-02T02:31:00;4.53;;;2.83;;
70981;SDS011;58640;51.320;9.456;2023-07-02T02:33:25;5.95;;;3.08;;
70981;SDS011;58640;51.320;9.456;2023-07-02T02:35:51;5.10;;;3.45;;
70981;SDS011;58640;51.320;9.456;2023-07-02T02:38:16;6.93;;;2.92;;
70981;SDS011;58640;51.320;9.456;2023-07-02T02:40:42;5.00;;;2.88;;
70981;SDS011;58640;51.320;9.456;2023-07-02T02:43:07;3.38;;;2.63;;
70981;SDS011;58640;51.320;9.456;2023-07-02T02:45:32;3.95;;;2.72;;
70981;SDS011;58640;51.320;9.456;2023-07-02T02:47:58;4.00;;;2.80;;
70981;SDS011;58640;51.320;9.456;2023-07-02T02:50:23;3.70;;;3.00;;
70981;SDS011;58640;51.320;9.456;2023-07-02T02:52:48;5.25;;;2.42;;
70981;SDS011;58640;51.320;9.456;2023-07-02T02:55:14;6.18;;;3.15;;
70981;SDS011;58640;51.320;9.456;2023-07-02T02:57:39;6.57;;;2.95;;
70981;SDS011;58640;51.320;9.456;2023-07-02T03:00:05;4.25;;;2.92;;
70981;SDS011;58640;51.320;9.456;2023-07-02T03:02:31;6.18;;;2.75;;
70981;SDS011;58640;51.320;9.456;2023-07-02T03:04:57;4.32;;;2.67;;
70981;SDS011;58640;51.320;9.456;2023-07-02T03:07:27;5.07;;;2.63;;
70981;SDS011;58640;51.320;9.456;2023-07-02T03:09:52;6.88;;;3.42;;
70981;SDS011;58640;51.320;9.456;2023-07-02T03:12:18;7.93;;;2.90;;
70981;SDS011;58640;51.320;9.456;2023-07-02T03:14:43;4.57;;;3.05;;
70981;SDS011;58640;51.320;9.456;2023-07-02T03:17:08;7.78;;;2.97;;
70981;SDS011;58640;51.320;9.456;2023-07-02T03:19:34;2.88;;;2.40;;
70981;SDS011;58640;51.320;9.456;2023-07-02T03:21:59;4.25;;;2.05;;
70981;SDS011;58640;51.320;9.456;2023-07-02T03:24:24;7.68;;;2.40;;
70981;SDS011;58640;51.320;9.456;2023-07-02T03:26:50;4.15;;;2.33;;
70981;SDS011;58640;51.320;9.456;2023-07-02T03:29:15;8.18;;;2.40;;
70981;SDS011;58640;51.320;9.456;2023-07-02T03:31:41;8.57;;;2.53;;
70981;SDS011;58640;51.320;9.456;2023-07-02T03:34:07;2.35;;;2.15;;
70981;SDS011;58640;51.320;9.456;2023-07-02T03:36:34;3.50;;;2.75;;
70981;SDS011;58640;51.320;9.456;2023-07-02T03:38:59;2.30;;;2.10;;
70981;SDS011;58640;51.320;9.456;2023-07-02T03:41:25;8.07;;;2.63;;
70981;SDS011;58640;51.320;9.456;2023-07-02T03:43:50;4.43;;;2.25;;
70981;SDS011;58640;51.320;9.456;2023-07-02T03:46:15;6.00;;;2.80;;
70981;SDS011;58640;51.320;9.456;2023-07-02T03:48:41;2.72;;;2.53;;
70981;SDS011;58640;51.320;9.456;2023-07-02T03:51:06;4.00;;;2.70;;
70981;SDS011;58640;51.320;9.456;2023-07-02T03:53:32;6.53;;;2.70;;
70981;SDS011;58640;51.320;9.456;2023-07-02T03:55:57;7.55;;;2.63;;
70981;SDS011;58640;51.320;9.456;2023-07-02T03:58:23;6.22;;;3.00;;
70981;SDS011;58640;51.320;9.456;2023-07-02T04:00:48;5.50;;;2.55;;
70981;SDS011;58640;51.320;9.456;2023-07-02T04:03:16;5.30;;;2.50;;
70981;SDS011;58640;51.320;9.456;2023-07-02T04:05:42;3.05;;;2.70;;
70981;SDS011;58640;51.320;9.456;2023-07-02T04:08:08;2.95;;;2.42;;
70981;SDS011;58640;51.320;9.456;2023-07-02T04:10:33;3.60;;;2.85;;
70981;SDS011;58640;51.320;9.456;2023-07-02T04:12:58;3.92;;;3.00;;
70981;SDS011;58640;51.320;9.456;2023-07-02T04:15:24;3.45;;;2.70;;
70981;SDS011;58640;51.320;9.456;2023-07-02T04:17:51;4.05;;;2.95;;
70981;SDS011;58640;51.320;9.456;2023-07-02T04:20:17;3.97;;;2.83;;
70981;SDS011;58640;51.320;9.456;2023-07-02T04:22:44;5.72;;;3.17;;
70981;SDS011;58640;51.320;9.456;2023-07-02T04:25:10;5.15;;;3.45;;
70981;SDS011;58640;51.320;9.456;2023-07-02T04:27:39;8.48;;;4.55;;
70981;SDS011;58640;51.320;9.456;2023-07-02T04:30:08;5.35;;;3.80;;
70981;SDS011;58640;51.320;9.456;2023-07-02T04:32:35;4.28;;;3.80;;
70981;SDS011;58640;51.320;9.456;2023-07-02T04:35:01;4.45;;;3.80;;
70981;SDS011;58640;51.320;9.456;2023-07-02T04:37:27;6.45;;;3.78;;
70981;SDS011;58640;51.320;9.456;2023-07-02T04:39:53;3.97;;;3.35;;
70981;SDS011;58640;51.320;9.456;2023-07-02T04:42:19;4.20;;;3.80;;
70981;SDS011;58640;51.320;9.456;2023-07-02T04:44:44;6.78;;;3.08;;
70981;SDS011;58640;51.320;9.456;2023-07-02T04:47:09;5.50;;;4.18;;
70981;SDS011;58640;51.320;9.456;2023-07-02T04:49:35;3.75;;;3.42;;
70981;SDS011;58640;51.320;9.456;2023-07-02T04:52:00;5.80;;;3.20;;
70981;SDS011;58640;51.320;9.456;2023-07-02T04:54:26;5.93;;;4.03;;
70981;SDS011;58640;51.320;9.456;2023-07-02T04:56:52;5.63;;;3.78;;
70981;SDS011;58640;51.320;9.456;2023-07-02T04:59:19;6.60;;;3.15;;
70981;SDS011;58640;51.320;9.456;2023-07-02T05:01:45;5.50;;;3.38;;
70981;SDS011;58640;51.320;9.456;2023-07-02T05:04:11;3.78;;;3.47;;
70981;SDS011;58640;51.320;9.456;2023-07-02T05:06:36;4.45;;;3.35;;
70981;SDS011;58640;51.320;9.456;2023-07-02T05:09:02;7.03;;;3.83;;
70981;SDS011;58640;51.320;9.456;2023-07-02T05:11:27;7.63;;;3.72;;
70981;SDS011;58640;51.320;9.456;2023-07-02T05:13:52;3.97;;;3.17;;
70981;SDS011;58640;51.320;9.456;2023-07-02T05:16:18;6.75;;;3.45;;
70981;SDS011;58640;51.320;9.456;2023-07-02T05:18:43;5.90;;;3.85;;
70981;SDS011;58640;51.320;9.456;2023-07-02T05:21:08;4.43;;;3.55;;
70981;SDS011;58640;51.320;9.456;2023-07-02T05:23:34;6.22;;;3.97;;
70981;SDS011;58640;51.320;9.456;2023-07-02T05:25:59;5.70;;;4.20;;
70981;SDS011;58640;51.320;9.456;2023-07-02T05:28:25;7.05;;;3.60;;
70981;SDS011;58640;51.320;9.456;2023-07-02T05:30:50;9.23;;;3.95;;
70981;SDS011;58640;51.320;9.456;2023-07-02T05:33:15;8.43;;;4.80;;
70981;SDS011;58640;51.320;9.456;2023-07-02T05:35:41;8.48;;;4.85;;
70981;SDS011;58640;51.320;9.456;2023-07-02T05:38:06;7.80;;;4.60;;
70981;SDS011;58640;51.320;9.456;2023-07-02T05:40:31;9.13;;;4.82;;
70981;SDS011;58640;51.320;9.456;2023-07-02T05:42:57;12.18;;;5.57;;
70981;SDS011;58640;51.320;9.456;2023-07-02T05:45:22;6.45;;;5.03;;
70981;SDS011;58640;51.320;9.456;2023-07-02T05:47:48;6.47;;;4.78;;
70981;SDS011;58640;51.320;9.456;2023-07-02T05:50:14;6.72;;;5.15;;
70981;SDS011;58640;51.320;9.456;2023-07-02T05:52:39;8.90;;;6.22;;
70981;SDS011;58640;51.320;9.456;2023-07-02T05:55:07;9.48;;;5.70;;
70981;SDS011;58640;51.320;9.456;2023-07-02T05:57:35;8.38;;;4.85;;
70981;SDS011;58640;51.320;9.456;2023-07-02T06:00:01;7.50;;;4.75;;
70981;SDS011;58640;51.320;9.456;2023-07-02T06:02:26;7.70;;;5.55;;
70981;SDS011;58640;51.320;9.456;2023-07-02T06:04:52;11.15;;;6.20;;
70981;SDS011;58640;51.320;9.456;2023-07-02T06:07:17;8.65;;;5.47;;
70981;SDS011;58640;51.320;9.456;2023-07-02T06:09:42;13.32;;;5.45;;
70981;SDS011;58640;51.320;9.456;2023-07-02T06:12:08;10.18;;;6.38;;
70981;SDS011;58640;51.320;9.456;2023-07-02T06:14:33;12.10;;;5.82;;
70981;SDS011;58640;51.320;9.456;2023-07-02T06:16:58;6.95;;;5.47;;
70981;SDS011;58640;51.320;9.456;2023-07-02T06:19:25;9.43;;;5.40;;
70981;SDS011;58640;51.320;9.456;2023-07-02T06:21:51;13.68;;;6.20;;
70981;SDS011;58640;51.320;9.456;2023-07-02T06:24:16;11.88;;;6.43;;
70981;SDS011;58640;51.320;9.456;2023-07-02T06:26:41;11.88;;;6.53;;
70981;SDS011;58640;51.320;9.456;2023-07-02T06:29:07;8.65;;;6.75;;
70981;SDS011;58640;51.320;9.456;2023-07-02T06:31:32;9.63;;;5.65;;
70981;SDS011;58640;51.320;9.456;2023-07-02T06:33:57;7.22;;;5.75;;
70981;SDS011;58640;51.320;9.456;2023-07-02T06:36:23;13.25;;;6.40;;
70981;SDS011;58640;51.320;9.456;2023-07-02T06:38:48;9.48;;;6.25;;
70981;SDS011;58640;51.320;9.456;2023-07-02T06:41:14;8.93;;;5.88;;
70981;SDS011;58640;51.320;9.456;2023-07-02T06:43:41;10.88;;;5.80;;
70981;SDS011;58640;51.320;9.456;2023-07-02T06:46:09;8.52;;;6.00;;
70981;SDS011;58640;51.320;9.456;2023-07-02T06:48:35;8.45;;;6.20;;
70981;SDS011;58640;51.320;9.456;2023-07-02T06:51:00;9.80;;;5.82;;
70981;SDS011;58640;51.320;9.456;2023-07-02T06:53:25;10.00;;;5.97;;
70981;SDS011;58640;51.320;9.456;2023-07-02T06:55:51;9.18;;;6.55;;
70981;SDS011;58640;51.320;9.456;2023-07-02T06:58:16;8.77;;;5.85;;
70981;SDS011;58640;51.320;9.456;2023-07-02T07:00:41;7.78;;;5.80;;
70981;SDS011;58640;51.320;9.456;2023-07-02T07:03:07;9.98;;;6.40;;
70981;SDS011;58640;51.320;9.456;2023-07-02T07:05:32;13.70;;;7.25;;
70981;SDS011;58640;51.320;9.456;2023-07-02T07:08:01;10.40;;;7.50;;
70981;SDS011;58640;51.320;9.456;2023-07-02T07:10:26;15.38;;;6.90;;
70981;SDS011;58640;51.320;9.456;2023-07-02T07:12:52;11.35;;;6.65;;
70981;SDS011;58640;51.320;9.456;2023-07-02T07:15:18;9.95;;;6.07;;
70981;SDS011;58640;51.320;9.456;2023-07-02T07:17:44;16.10;;;8.43;;
70981;SDS011;58640;51.320;9.456;2023-07-02T07:20:09;12.50;;;7.07;;
70981;SDS011;58640;51.320;9.456;2023-07-02T07:22:35;12.55;;;7.43;;
70981;SDS011;58640;51.320;9.456;2023-07-02T07:25:00;11.23;;;6.45;;
70981;SDS011;58640;51.320;9.456;2023-07-02T07:27:25;13.45;;;7.10;;
70981;SDS011;58640;51.320;9.456;2023-07-02T07:29:51;14.00;;;8.13;;
70981;SDS011;58640;51.320;9.456;2023-07-02T07:32:16;18.75;;;7.88;;
70981;SDS011;58640;51.320;9.456;2023-07-02T07:34:42;16.15;;;8.35;;
70981;SDS011;58640;51.320;9.456;2023-07-02T07:37:07;19.33;;;9.43;;
70981;SDS011;58640;51.320;9.456;2023-07-02T07:39:32;13.05;;;7.95;;
70981;SDS011;58640;51.320;9.456;2023-07-02T07:41:58;14.52;;;7.97;;
70981;SDS011;58640;51.320;9.456;2023-07-02T07:44:23;14.30;;;7.82;;
70981;SDS011;58640;51.320;9.456;2023-07-02T07:46:53;18.83;;;7.88;;
70981;SDS011;58640;51.320;9.456;2023-07-02T07:49:19;16.55;;;7.95;;
70981;SDS011;58640;51.320;9.456;2023-07-02T07:51:44;22.40;;;8.13;;
70981;SDS011;58640;51.320;9.456;2023-07-02T07:54:10;13.90;;;7.43;;
70981;SDS011;58640;51.320;9.456;2023-07-02T07:56:35;21.63;;;8.70;;
70981;SDS011;58640;51.320;9.456;2023-07-02T07:59:00;17.63;;;7.70;;
70981;SDS011;58640;51.320;9.456;2023-07-02T08:01:26;18.80;;;8.30;;
70981;SDS011;58640;51.320;9.456;2023-07-02T08:03:52;20.23;;;8.20;;
70981;SDS011;58640;51.320;9.456;2023-07-02T08:06:18;18.05;;;7.95;;
70981;SDS011;58640;51.320;9.456;2023-07-02T08:08:43;17.23;;;7.47;;
70981;SDS011;58640;51.320;9.456;2023-07-02T08:11:08;15.10;;;7.60;;
70981;SDS011;58640;51.320;9.456;2023-07-02T08:13:34;22.27;;;8.45;;
70981;SDS011;58640;51.320;9.456;2023-07-02T08:15:59;18.55;;;7.90;;
70981;SDS011;58640;51.320;9.456;2023-07-02T08:18:24;17.13;;;8.40;;
70981;SDS011;58640;51.320;9.456;2023-07-02T08:20:50;13.77;;;7.50;;
70981;SDS011;58640;51.320;9.456;2023-07-02T08:23:15;19.42;;;8.80;;
70981;SDS011;58640;51.320;9.456;2023-07-02T08:25:40;14.95;;;7.82;;
70981;SDS011;58640;51.320;9.456;2023-07-02T08:28:06;14.50;;;8.77;;
70981;SDS011;58640;51.320;9.456;2023-07-02T08:30:31;16.08;;;7.72;;
70981;SDS011;58640;51.320;9.456;2023-07-02T08:32:56;16.35;;;8.40;;
70981;SDS011;58640;51.320;9.456;2023-07-02T08:35:22;15.23;;;8.10;;
70981;SDS011;58640;51.320;9.456;2023-07-02T08:37:47;15.25;;;7.47;;
70981;SDS011;58640;51.320;9.456;2023-07-02T08:40:19;15.17;;;8.17;;
70981;SDS011;58640;51.320;9.456;2023-07-02T08:42:45;13.93;;;8.25;;
70981;SDS011;58640;51.320;9.456;2023-07-02T08:45:14;17.98;;;8.65;;
70981;SDS011;58640;51.320;9.456;2023-07-02T08:47:41;16.73;;;7.85;;
70981;SDS011;58640;51.320;9.456;2023-07-02T08:50:07;18.77;;;10.27;;
70981;SDS011;58640;51.320;9.456;2023-07-02T08:52:32;20.25;;;9.50;;
70981;SDS011;58640;51.320;9.456;2023-07-02T08:54:58;18.98;;;8.18;;
70981;SDS011;58640;51.320;9.456;2023-07-02T08:57:23;16.33;;;7.85;;
70981;SDS011;58640;51.320;9.456;2023-07-02T08:59:48;12.93;;;7.55;;
70981;SDS011;58640;51.320;9.456;2023-07-02T09:02:16;13.15;;;7.50;;
70981;SDS011;58640;51.320;9.456;2023-07-02T09:04:41;16.45;;;8.65;;
70981;SDS011;58640;51.320;9.456;2023-07-02T09:07:08;15.40;;;8.27;;
70981;SDS011;58640;51.320;9.456;2023-07-02T09:09:47;15.90;;;8.48;;
70981;SDS011;58640;51.320;9.456;2023-07-02T09:12:27;15.02;;;8.00;;
70981;SDS011;58640;51.320;9.456;2023-07-02T09:15:00;16.40;;;8.68;;
70981;SDS011;58640;51.320;9.456;2023-07-02T09:17:31;15.68;;;8.30;;
70981;SDS011;58640;51.320;9.456;2023-07-02T09:20:01;18.00;;;8.73;;
70981;SDS011;58640;51.320;9.456;2023-07-02T09:22:30;16.70;;;8.77;;
70981;SDS011;58640;51.320;9.456;2023-07-02T09:24:59;19.30;;;8.55;;
70981;SDS011;58640;51.320;9.456;2023-07-02T09:30:05;18.65;;;9.48;;
70981;SDS011;58640;51.320;9.456;2023-07-02T09:32:32;16.25;;;8.15;;
70981;SDS011;58640;51.320;9.456;2023-07-02T09:34:57;18.25;;;9.45;;
70981;SDS011;58640;51.320;9.456;2023-07-02T09:37:23;18.58;;;8.65;;
70981;SDS011;58640;51.320;9.456;2023-07-02T09:39:49;21.75;;;8.82;;
70981;SDS011;58640;51.320;9.456;2023-07-02T09:42:17;22.60;;;9.32;;
70981;SDS011;58640;51.320;9.456;2023-07-02T09:44:44;20.35;;;10.18;;
70981;SDS011;58640;51.320;9.456;2023-07-02T09:47:10;15.20;;;7.90;;
70981;SDS011;58640;51.320;9.456;2023-07-02T09:49:38;16.92;;;8.90;;
70981;SDS011;58640;51.320;9.456;2023-07-02T09:52:07;16.42;;;8.73;;
70981;SDS011;58640;51.320;9.456;2023-07-02T09:54:34;17.58;;;8.60;;
70981;SDS011;58640;51.320;9.456;2023-07-02T09:57:00;18.02;;;8.35;;
70981;SDS011;58640;51.320;9.456;2023-07-02T09:59:27;18.58;;;11.13;;
70981;SDS011;58640;51.320;9.456;2023-07-02T10:01:53;17.20;;;9.25;;
70981;SDS011;58640;51.320;9.456;2023-07-02T10:04:19;21.70;;;9.98;;
70981;SDS011;58640;51.320;9.456;2023-07-02T10:06:46;18.45;;;9.82;;
70981;SDS011;58640;51.320;9.456;2023-07-02T10:09:15;24.55;;;9.70;;
70981;SDS011;58640;51.320;9.456;2023-07-02T10:11:41;17.20;;;8.45;;
70981;SDS011;58640;51.320;9.456;2023-07-02T10:14:06;19.15;;;9.25;;
70981;SDS011;58640;51.320;9.456;2023-07-02T10:16:32;17.92;;;9.13;;
70981;SDS011;58640;51.320;9.456;2023-07-02T10:19:10;13.65;;;7.90;;
70981;SDS011;58640;51.320;9.456;2023-07-02T10:21:35;16.50;;;7.97;;
70981;SDS011;58640;51.320;9.456;2023-07-02T10:24:14;21.50;;;9.10;;
70981;SDS011;58640;51.320;9.456;2023-07-02T10:26:59;19.90;;;8.48;;
70981;SDS011;58640;51.320;9.456;2023-07-02T10:29:26;19.92;;;8.55;;
70981;SDS011;58640;51.320;9.456;2023-07-02T10:31:53;17.48;;;8.60;;
70981;SDS011;58640;51.320;9.456;2023-07-02T10:34:29;19.55;;;8.82;;
70981;SDS011;58640;51.320;9.456;2023-07-02T10:36:55;16.70;;;8.23;;
70981;SDS011;58640;51.320;9.456;2023-07-02T10:39:21;18.17;;;8.93;;
70981;SDS011;58640;51.320;9.456;2023-07-02T10:41:47;18.48;;;9.07;;
70981;SDS011;58640;51.320;9.456;2023-07-02T10:44:13;16.88;;;9.02;;
70981;SDS011;58640;51.320;9.456;2023-07-02T10:46:45;16.52;;;8.75;;
70981;SDS011;58640;51.320;9.456;2023-07-02T10:49:11;18.38;;;9.52;;
70981;SDS011;58640;51.320;9.456;2023-07-02T10:51:37;18.08;;;8.50;;
70981;SDS011;58640;51.320;9.456;2023-07-02T10:54:02;15.77;;;8.70;;
70981;SDS011;58640;51.320;9.456;2023-07-02T10:56:30;14.25;;;7.68;;
70981;SDS011;58640;51.320;9.456;2023-07-02T10:58:59;18.85;;;8.35;;
70981;SDS011;58640;51.320;9.456;2023-07-02T11:01:28;18.10;;;8.90;;
70981;SDS011;58640;51.320;9.456;2023-07-02T11:03:59;16.17;;;8.48;;
70981;SDS011;58640;51.320;9.456;2023-07-02T11:06:29;17.48;;;8.80;;
70981;SDS011;58640;51.320;9.456;2023-07-02T11:08:56;15.98;;;8.77;;
70981;SDS011;58640;51.320;9.456;2023-07-02T11:11:22;21.55;;;9.30;;
70981;SDS011;58640;51.320;9.456;2023-07-02T11:13:48;15.50;;;8.68;;
70981;SDS011;58640;51.320;9.456;2023-07-02T11:16:25;20.05;;;8.68;;
70981;SDS011;58640;51.320;9.456;2023-07-02T11:19:09;19.80;;;9.48;;
70981;SDS011;58640;51.320;9.456;2023-07-02T11:21:35;16.20;;;8.70;;
70981;SDS011;58640;51.320;9.456;2023-07-02T11:24:02;19.77;;;9.30;;
70981;SDS011;58640;51.320;9.456;2023-07-02T11:26:41;20.98;;;10.38;;
70981;SDS011;58640;51.320;9.456;2023-07-02T11:29:12;21.83;;;9.38;;
70981;SDS011;58640;51.320;9.456;2023-07-02T11:31:43;19.63;;;9.30;;
70981;SDS011;58640;51.320;9.456;2023-07-02T11:34:15;24.08;;;10.13;;
70981;SDS011;58640;51.320;9.456;2023-07-02T11:36:42;24.67;;;10.07;;
70981;SDS011;58640;51.320;9.456;2023-07-02T11:39:07;19.20;;;8.75;;
70981;SDS011;58640;51.320;9.456;2023-07-02T11:41:43;17.08;;;9.32;;
70981;SDS011;58640;51.320;9.456;2023-07-02T11:44:09;20.05;;;9.18;;
70981;SDS011;58640;51.320;9.456;2023-07-02T11:46:34;16.48;;;9.25;;
70981;SDS011;58640;51.320;9.456;2023-07-02T11:49:00;17.77;;;9.60;;
70981;SDS011;58640;51.320;9.456;2023-07-02T11:51:27;16.80;;;9.05;;
70981;SDS011;58640;51.320;9.456;2023-07-02T11:53:52;18.42;;;9.38;;
70981;SDS011;58640;51.320;9.456;2023-07-02T11:56:17;16.27;;;8.48;;
70981;SDS011;58640;51.320;9.456;2023-07-02T11:58:43;23.38;;;9.35;;
70981;SDS011;58640;51.320;9.456;2023-07-02T12:01:08;17.27;;;8.77;;
70981;SDS011;58640;51.320;9.456;2023-07-02T12:03:33;19.65;;;8.73;;
70981;SDS011;58640;51.320;9.456;2023-07-02T12:05:59;15.68;;;9.48;;
70981;SDS011;58640;51.320;9.456;2023-07-02T12:08:24;21.05;;;9.90;;
70981;SDS011;58640;51.320;9.456;2023-07-02T12:10:50;20.25;;;8.93;;
70981;SDS011;58640;51.320;9.456;2023-07-02T12:13:15;20.02;;;9.10;;
70981;SDS011;58640;51.320;9.456;2023-07-02T12:15:40;16.15;;;9.27;;
70981;SDS011;58640;51.320;9.456;2023-07-02T12:18:06;18.33;;;8.93;;
70981;SDS011;58640;51.320;9.456;2023-07-02T12:20:32;19.58;;;9.20;;
70981;SDS011;58640;51.320;9.456;2023-07-02T12:22:57;21.23;;;8.82;;
70981;SDS011;58640;51.320;9.456;2023-07-02T12:25:22;22.73;;;9.65;;
70981;SDS011;58640;51.320;9.456;2023-07-02T12:27:48;21.33;;;9.00;;
70981;SDS011;58640;51.320;9.456;2023-07-02T12:30:13;18.70;;;9.60;;
70981;SDS011;58640;51.320;9.456;2023-07-02T12:32:42;20.75;;;8.95;;
70981;SDS011;58640;51.320;9.456;2023-07-02T12:35:08;22.08;;;9.57;;
70981;SDS011;58640;51.320;9.456;2023-07-02T12:37:33;20.15;;;9.55;;
70981;SDS011;58640;51.320;9.456;2023-07-02T12:39:58;24.40;;;10.05;;
70981;SDS011;58640;51.320;9.456;2023-07-02T12:42:24;21.80;;;9.45;;
70981;SDS011;58640;51.320;9.456;2023-07-02T12:44:49;20.02;;;9.70;;
70981;SDS011;58640;51.320;9.456;2023-07-02T12:47:14;18.67;;;9.68;;
70981;SDS011;58640;51.320;9.456;2023-07-02T12:49:40;23.02;;;10.00;;
70981;SDS011;58640;51.320;9.456;2023-07-02T12:52:05;23.15;;;10.73;;
70981;SDS011;58640;51.320;9.456;2023-07-02T12:54:30;16.00;;;9.50;;
70981;SDS011;58640;51.320;9.456;2023-07-02T12:56:56;18.23;;;9.38;;
70981;SDS011;58640;51.320;9.456;2023-07-02T12:59:21;20.88;;;9.52;;
70981;SDS011;58640;51.320;9.456;2023-07-02T13:01:46;23.00;;;11.48;;
70981;SDS011;58640;51.320;9.456;2023-07-02T13:04:12;23.15;;;9.73;;
70981;SDS011;58640;51.320;9.456;2023-07-02T13:06:39;21.25;;;10.00;;
70981;SDS011;58640;51.320;9.456;2023-07-02T13:09:09;20.33;;;9.02;;
70981;SDS011;58640;51.320;9.456;2023-07-02T13:11:35;21.83;;;10.45;;
70981;SDS011;58640;51.320;9.456;2023-07-02T13:14:00;21.17;;;10.02;;
70981;SDS011;58640;51.320;9.456;2023-07-02T13:16:25;17.58;;;9.10;;
70981;SDS011;58640;51.320;9.456;2023-07-02T13:18:51;25.83;;;10.15;;
70981;SDS011;58640;51.320;9.456;2023-07-02T13:21:17;20.45;;;9.55;;
70981;SDS011;58640;51.320;9.456;2023-07-02T13:23:43;16.33;;;8.50;;
70981;SDS011;58640;51.320;9.456;2023-07-02T13:26:08;21.50;;;10.73;;
70981;SDS011;58640;51.320;9.456;2023-07-02T13:28:33;18.80;;;9.02;;
70981;SDS011;58640;51.320;9.456;2023-07-02T13:30:59;25.17;;;10.25;;
70981;SDS011;58640;51.320;9.456;2023-07-02T13:33:24;19.42;;;10.05;;
70981;SDS011;58640;51.320;9.456;2023-07-02T13:35:51;25.33;;;10.15;;
70981;SDS011;58640;51.320;9.456;2023-07-02T13:38:16;21.58;;;10.02;;
70981;SDS011;58640;51.320;9.456;2023-07-02T13:40:41;21.73;;;9.88;;
70981;SDS011;58640;51.320;9.456;2023-07-02T13:43:07;22.05;;;9.80;;
70981;SDS011;58640;51.320;9.456;2023-07-02T13:45:32;23.83;;;9.60;;
70981;SDS011;58640;51.320;9.456;2023-07-02T13:47:57;23.13;;;10.43;;
70981;SDS011;58640;51.320;9.456;2023-07-02T13:50:23;17.40;;;9.18;;
70981;SDS011;58640;51.320;9.456;2023-07-02T13:52:48;23.30;;;10.20;;
70981;SDS011;58640;51.320;9.456;2023-07-02T13:55:19;20.30;;;11.35;;
70981;SDS011;58640;51.320;9.456;2023-07-02T13:57:54;22.05;;;9.50;;
70981;SDS011;58640;51.320;9.456;2023-07-02T14:00:22;17.63;;;9.52;;
70981;SDS011;58640;51.320;9.456;2023-07-02T14:02:48;20.23;;;9.95;;
70981;SDS011;58640;51.320;9.456;2023-07-02T14:05:14;22.15;;;10.50;;
70981;SDS011;58640;51.320;9.456;2023-07-02T14:07:40;22.73;;;10.13;;
70981;SDS011;58640;51.320;9.456;2023-07-02T14:10:05;19.67;;;10.02;;
70981;SDS011;58640;51.320;9.456;2023-07-02T14:12:31;18.70;;;9.90;;
70981;SDS011;58640;51.320;9.456;2023-07-02T14:14:57;20.33;;;9.20;;
70981;SDS011;58640;51.320;9.456;2023-07-02T14:17:32;17.38;;;9.52;;
70981;SDS011;58640;51.320;9.456;2023-07-02T14:19:58;18.60;;;9.00;;
70981;SDS011;58640;51.320;9.456;2023-07-02T14:22:25;23.95;;;10.65;;
70981;SDS011;58640;51.320;9.456;2023-07-02T14:24:53;26.45;;;9.63;;
70981;SDS011;58640;51.320;9.456;2023-07-02T14:27:18;22.83;;;9.30;;
70981;SDS011;58640;51.320;9.456;2023-07-02T14:30:05;21.05;;;10.10;;
70981;SDS011;58640;51.320;9.456;2023-07-02T14:32:33;25.10;;;10.75;;
70981;SDS011;58640;51.320;9.456;2023-07-02T14:35:02;21.42;;;10.93;;
70981;SDS011;58640;51.320;9.456;2023-07-02T14:37:27;20.73;;;9.88;;
70981;SDS011;58640;51.320;9.456;2023-07-02T14:39:53;21.10;;;9.13;;
70981;SDS011;58640;51.320;9.456;2023-07-02T14:42:18;26.42;;;10.77;;
70981;SDS011;58640;51.320;9.456;2023-07-02T14:48:07;25.27;;;10.93;;
70981;SDS011;58640;51.320;9.456;2023-07-02T15:14:51;23.75;;;10.82;;
70981;SDS011;58640;51.320;9.456;2023-07-02T15:29:17;22.38;;;10.13;;
70981;SDS011;58640;51.320;9.456;2023-07-02T15:31:42;20.67;;;10.13;;
70981;SDS011;58640;51.320;9.456;2023-07-02T15:44:52;22.90;;;10.45;;
70981;SDS011;58640;51.320;9.456;2023-07-02T15:47:17;21.95;;;8.70;;
70981;SDS011;58640;51.320;9.456;2023-07-02T15:49:43;20.42;;;9.55;;
70981;SDS011;58640;51.320;9.456;2023-07-02T15:52:08;18.25;;;8.80;;
70981;SDS011;58640;51.320;9.456;2023-07-02T15:54:34;18.92;;;9.45;;
70981;SDS011;58640;51.320;9.456;2023-07-02T15:56:59;18.05;;;8.88;;
70981;SDS011;58640;51.320;9.456;2023-07-02T15:59:24;17.48;;;8.13;;
70981;SDS011;58640;51.320;9.456;2023-07-02T16:01:50;17.17;;;7.53;;
70981;SDS011;58640;51.320;9.456;2023-07-02T16:04:15;16.45;;;6.90;;
70981;SDS011;58640;51.320;9.456;2023-07-02T16:06:42;18.20;;;7.60;;
70981;SDS011;58640;51.320;9.456;2023-07-02T16:09:07;22.08;;;7.25;;
70981;SDS011;58640;51.320;9.456;2023-07-02T16:11:33;15.80;;;6.55;;
70981;SDS011;58640;51.320;9.456;2023-07-02T16:14:01;12.23;;;6.47;;
70981;SDS011;58640;51.320;9.456;2023-07-02T16:16:32;16.63;;;6.45;;
70981;SDS011;58640;51.320;9.456;2023-07-02T16:18:58;14.60;;;6.57;;
70981;SDS011;58640;51.320;9.456;2023-07-02T16:21:24;14.25;;;7.10;;
70981;SDS011;58640;51.320;9.456;2023-07-02T16:23:49;16.67;;;6.45;;
70981;SDS011;58640;51.320;9.456;2023-07-02T16:26:15;14.90;;;6.53;;
70981;SDS011;58640;51.320;9.456;2023-07-02T16:28:40;15.45;;;6.35;;
70981;SDS011;58640;51.320;9.456;2023-07-02T16:31:09;12.80;;;6.15;;
70981;SDS011;58640;51.320;9.456;2023-07-02T16:33:34;13.10;;;5.55;;
70981;SDS011;58640;51.320;9.456;2023-07-02T16:36:06;14.18;;;6.40;;
70981;SDS011;58640;51.320;9.456;2023-07-02T16:38:33;12.27;;;6.07;;
70981;SDS011;58640;51.320;9.456;2023-07-02T16:41:00;13.35;;;5.85;;
70981;SDS011;58640;51.320;9.456;2023-07-02T16:43:25;14.75;;;6.80;;
70981;SDS011;58640;51.320;9.456;2023-07-02T16:45:52;12.18;;;4.75;;
70981;SDS011;58640;51.320;9.456;2023-07-02T16:48:21;11.63;;;6.22;;